sensor_id;sensor_type;location;lat;lon;timestamp;temperature;humidity
20744;DHT22;56303;52.160;-0.428;2022-12-07T00:03:41;4.30;99.90
20744;DHT22;56303;52.160;-0.428;2022-12-07T00:06:11;4.30;99.90
20744;DHT22;56303;52.160;-0.428;2022-12-07T00:08:38;4.30;99.90
20744;DHT22;56303;52.160;-0.428;2022-12-07T00:11:08;4.30;99.90
20744;DHT22;56303;52.160;-0.428;2022-12-07T00:13:35;4.10;99.90
20744;DHT22;56303;52.160;-0.428;2022-12-07T00:16:11;4.10;99.90
20744;DHT22;56303;52.160;-0.428;2022-12-07T00:18:39;4.00;99.90
20744;DHT22;56303;52.160;-0.428;2022-12-07T00:21:11;4.10;99.90
20744;DHT22;56303;52.160;-0.428;2022-12-07T00:23:40;4.00;99.90
20744;DHT22;56303;52.160;-0.428;2022-12-07T00:26:10;3.70;99.90
20744;DHT22;56303;52.160;-0.428;2022-12-07T00:28:37;3.70;99.90
20744;DHT22;56303;52.160;-0.428;2022-12-07T00:31:06;3.90;99.90
20744;DHT22;56303;52.160;-0.428;2022-12-07T00:33:34;3.90;99.90
20744;DHT22;56303;52.160;-0.428;2022-12-07T00:36:03;3.70;99.90
20744;DHT22;56303;52.160;-0.428;2022-12-07T00:38:32;3.70;99.90
20744;DHT22;56303;52.160;-0.428;2022-12-07T00:41:14;3.70;99.90
20744;DHT22;56303;52.160;-0.428;2022-12-07T00:43:43;3.60;99.90
20744;DHT22;56303;52.160;-0.428;2022-12-07T00:46:10;3.80;99.90
20744;DHT22;56303;52.160;-0.428;2022-12-07T00:48:38;3.60;99.90
20744;DHT22;56303;52.160;-0.428;2022-12-07T00:51:06;3.60;99.90
20744;DHT22;56303;52.160;-0.428;2022-12-07T00:53:37;3.50;99.90
20744;DHT22;56303;52.160;-0.428;2022-12-07T00:56:09;3.50;99.90
20744;DHT22;56303;52.160;-0.428;2022-12-07T00:58:36;3.70;99.90
20744;DHT22;56303;52.160;-0.428;2022-12-07T01:01:05;3.80;99.90
20744;DHT22;56303;52.160;-0.428;2022-12-07T01:03:33;3.70;99.90
20744;DHT22;56303;52.160;-0.428;2022-12-07T01:06:01;3.90;99.90
20744;DHT22;56303;52.160;-0.428;2022-12-07T01:08:28;3.60;99.90
20744;DHT22;56303;52.160;-0.428;2022-12-07T01:11:06;3.50;99.90
20744;DHT22;56303;52.160;-0.428;2022-12-07T01:13:34;3.50;99.90
20744;DHT22;56303;52.160;-0.428;2022-12-07T01:16:04;3.60;99.90
20744;DHT22;56303;52.160;-0.428;2022-12-07T01:18:33;3.70;99.90
20744;DHT22;56303;52.160;-0.428;2022-12-07T01:21:05;3.70;99.90
20744;DHT22;56303;52.160;-0.428;2022-12-07T01:23:33;3.80;99.90
20744;DHT22;56303;52.160;-0.428;2022-12-07T01:26:03;3.80;99.90
20744;DHT22;56303;52.160;-0.428;2022-12-07T01:28:31;3.90;99.90
20744;DHT22;56303;52.160;-0.428;2022-12-07T01:31:05;3.80;99.90
20744;DHT22;56303;52.160;-0.428;2022-12-07T01:33:35;4.00;99.90
20744;DHT22;56303;52.160;-0.428;2022-12-07T01:36:17;4.10;99.90
20744;DHT22;56303;52.160;-0.428;2022-12-07T01:38:46;4.20;99.90
20744;DHT22;56303;52.160;-0.428;2022-12-07T01:41:14;4.00;99.90
20744;DHT22;56303;52.160;-0.428;2022-12-07T01:46:32;4.10;99.90
20744;DHT22;56303;52.160;-0.428;2022-12-07T01:48:59;3.80;99.90
20744;DHT22;56303;52.160;-0.428;2022-12-07T01:51:27;3.90;99.90
20744;DHT22;56303;52.160;-0.428;2022-12-07T01:53:54;4.00;99.90
20744;DHT22;56303;52.160;-0.428;2022-12-07T01:56:24;4.00;99.90
20744;DHT22;56303;52.160;-0.428;2022-12-07T01:58:53;3.90;99.90
20744;DHT22;56303;52.160;-0.428;2022-12-07T02:01:20;4.00;99.90
20744;DHT22;56303;52.160;-0.428;2022-12-07T02:03:48;4.00;99.90
20744;DHT22;56303;52.160;-0.428;2022-12-07T02:06:19;3.60;99.90
20744;DHT22;56303;52.160;-0.428;2022-12-07T02:08:47;3.50;99.90
20744;DHT22;56303;52.160;-0.428;2022-12-07T02:11:14;3.60;99.90
20744;DHT22;56303;52.160;-0.428;2022-12-07T02:13:43;3.80;99.90
20744;DHT22;56303;52.160;-0.428;2022-12-07T02:16:31;4.00;99.90
20744;DHT22;56303;52.160;-0.428;2022-12-07T02:30:19;3.70;99.90
20744;DHT22;56303;52.160;-0.428;2022-12-07T02:32:59;4.00;99.90
20744;DHT22;56303;52.160;-0.428;2022-12-07T02:38:40;3.90;99.90
20744;DHT22;56303;52.160;-0.428;2022-12-07T02:41:13;3.70;99.90
20744;DHT22;56303;52.160;-0.428;2022-12-07T02:43:46;3.80;99.90
20744;DHT22;56303;52.160;-0.428;2022-12-07T02:46:17;3.90;99.90
20744;DHT22;56303;52.160;-0.428;2022-12-07T02:48:46;3.80;99.90
20744;DHT22;56303;52.160;-0.428;2022-12-07T02:51:14;3.70;99.90
20744;DHT22;56303;52.160;-0.428;2022-12-07T02:53:42;3.70;99.90
20744;DHT22;56303;52.160;-0.428;2022-12-07T02:59:25;3.60;99.90
20744;DHT22;56303;52.160;-0.428;2022-12-07T03:07:32;3.40;99.90
20744;DHT22;56303;52.160;-0.428;2022-12-07T03:10:14;3.30;99.90
20744;DHT22;56303;52.160;-0.428;2022-12-07T03:15:50;3.90;99.90
20744;DHT22;56303;52.160;-0.428;2022-12-07T03:18:22;3.80;99.90
20744;DHT22;56303;52.160;-0.428;2022-12-07T03:20:52;3.80;99.90
20744;DHT22;56303;52.160;-0.428;2022-12-07T03:23:20;3.80;99.90
20744;DHT22;56303;52.160;-0.428;2022-12-07T03:25:52;3.60;99.90
20744;DHT22;56303;52.160;-0.428;2022-12-07T03:28:32;3.40;99.90
20744;DHT22;56303;52.160;-0.428;2022-12-07T03:31:09;3.30;99.90
20744;DHT22;56303;52.160;-0.428;2022-12-07T03:33:49;3.50;99.90
20744;DHT22;56303;52.160;-0.428;2022-12-07T03:36:24;3.50;99.90
20744;DHT22;56303;52.160;-0.428;2022-12-07T03:39:04;3.70;99.90
20744;DHT22;56303;52.160;-0.428;2022-12-07T03:41:37;3.60;99.90
20744;DHT22;56303;52.160;-0.428;2022-12-07T03:44:10;3.60;99.90
20744;DHT22;56303;52.160;-0.428;2022-12-07T03:46:44;3.50;99.90
20744;DHT22;56303;52.160;-0.428;2022-12-07T03:54:57;3.40;99.90
20744;DHT22;56303;52.160;-0.428;2022-12-07T03:57:27;3.20;99.90
20744;DHT22;56303;52.160;-0.428;2022-12-07T03:59:55;3.20;99.90
20744;DHT22;56303;52.160;-0.428;2022-12-07T04:02:25;3.20;99.90
20744;DHT22;56303;52.160;-0.428;2022-12-07T04:04:53;3.10;99.90
20744;DHT22;56303;52.160;-0.428;2022-12-07T04:07:21;3.10;99.90
20744;DHT22;56303;52.160;-0.428;2022-12-07T04:09:48;3.40;99.90
20744;DHT22;56303;52.160;-0.428;2022-12-07T04:12:15;3.30;99.90
20744;DHT22;56303;52.160;-0.428;2022-12-07T04:14:42;3.40;99.90
20744;DHT22;56303;52.160;-0.428;2022-12-07T04:17:09;3.30;99.90
20744;DHT22;56303;52.160;-0.428;2022-12-07T04:19:37;3.30;99.90
20744;DHT22;56303;52.160;-0.428;2022-12-07T04:22:05;3.70;99.90
20744;DHT22;56303;52.160;-0.428;2022-12-07T04:24:33;3.60;99.90
20744;DHT22;56303;52.160;-0.428;2022-12-07T04:27:00;3.40;99.90
20744;DHT22;56303;52.160;-0.428;2022-12-07T04:29:27;3.30;99.90
20744;DHT22;56303;52.160;-0.428;2022-12-07T04:31:54;3.20;99.90
20744;DHT22;56303;52.160;-0.428;2022-12-07T04:34:21;3.60;99.90
20744;DHT22;56303;52.160;-0.428;2022-12-07T04:36:48;3.50;99.90
20744;DHT22;56303;52.160;-0.428;2022-12-07T04:39:24;3.40;99.90
20744;DHT22;56303;52.160;-0.428;2022-12-07T04:41:51;3.30;99.90
20744;DHT22;56303;52.160;-0.428;2022-12-07T04:44:18;3.30;99.90
20744;DHT22;56303;52.160;-0.428;2022-12-07T04:46:46;3.20;99.90
20744;DHT22;56303;52.160;-0.428;2022-12-07T04:49:13;3.20;99.90
20744;DHT22;56303;52.160;-0.428;2022-12-07T04:51:41;3.20;99.90
20744;DHT22;56303;52.160;-0.428;2022-12-07T04:54:08;3.40;99.90
20744;DHT22;56303;52.160;-0.428;2022-12-07T04:56:35;3.40;99.90
20744;DHT22;56303;52.160;-0.428;2022-12-07T04:59:02;3.50;99.90
20744;DHT22;56303;52.160;-0.428;2022-12-07T05:01:30;3.40;99.90
20744;DHT22;56303;52.160;-0.428;2022-12-07T05:03:56;3.40;99.90
20744;DHT22;56303;52.160;-0.428;2022-12-07T05:06:24;3.40;99.90
20744;DHT22;56303;52.160;-0.428;2022-12-07T05:08:51;3.30;99.90
20744;DHT22;56303;52.160;-0.428;2022-12-07T05:11:18;3.40;99.90
20744;DHT22;56303;52.160;-0.428;2022-12-07T05:16:42;3.30;99.90
20744;DHT22;56303;52.160;-0.428;2022-12-07T05:19:10;3.40;99.90
20744;DHT22;56303;52.160;-0.428;2022-12-07T05:21:37;3.40;99.90
20744;DHT22;56303;52.160;-0.428;2022-12-07T05:24:05;3.30;99.90
20744;DHT22;56303;52.160;-0.428;2022-12-07T05:26:32;3.40;99.90
20744;DHT22;56303;52.160;-0.428;2022-12-07T05:28:59;3.40;99.90
20744;DHT22;56303;52.160;-0.428;2022-12-07T05:31:27;3.30;99.90
20744;DHT22;56303;52.160;-0.428;2022-12-07T05:33:54;3.60;99.90
20744;DHT22;56303;52.160;-0.428;2022-12-07T05:36:21;3.60;99.90
20744;DHT22;56303;52.160;-0.428;2022-12-07T05:38:48;3.70;99.90
20744;DHT22;56303;52.160;-0.428;2022-12-07T05:41:16;3.80;99.90
20744;DHT22;56303;52.160;-0.428;2022-12-07T05:44:03;3.50;99.90
20744;DHT22;56303;52.160;-0.428;2022-12-07T05:46:30;3.50;99.90
20744;DHT22;56303;52.160;-0.428;2022-12-07T05:48:57;3.50;99.90
20744;DHT22;56303;52.160;-0.428;2022-12-07T05:51:23;3.50;99.90
20744;DHT22;56303;52.160;-0.428;2022-12-07T05:53:50;3.50;99.90
20744;DHT22;56303;52.160;-0.428;2022-12-07T05:56:17;3.40;99.90
20744;DHT22;56303;52.160;-0.428;2022-12-07T05:58:44;3.30;99.90
20744;DHT22;56303;52.160;-0.428;2022-12-07T06:01:29;3.20;99.90
20744;DHT22;56303;52.160;-0.428;2022-12-07T06:03:56;3.10;99.90
20744;DHT22;56303;52.160;-0.428;2022-12-07T06:06:23;3.00;99.90
20744;DHT22;56303;52.160;-0.428;2022-12-07T06:08:50;3.10;99.90
20744;DHT22;56303;52.160;-0.428;2022-12-07T06:11:16;3.20;99.90
20744;DHT22;56303;52.160;-0.428;2022-12-07T06:14:02;3.30;99.90
20744;DHT22;56303;52.160;-0.428;2022-12-07T06:16:29;3.30;99.90
20744;DHT22;56303;52.160;-0.428;2022-12-07T06:18:56;3.20;99.90
20744;DHT22;56303;52.160;-0.428;2022-12-07T06:21:22;2.90;99.90
20744;DHT22;56303;52.160;-0.428;2022-12-07T06:23:49;3.00;99.90
20744;DHT22;56303;52.160;-0.428;2022-12-07T06:26:16;2.70;99.90
20744;DHT22;56303;52.160;-0.428;2022-12-07T06:28:43;2.70;99.90
20744;DHT22;56303;52.160;-0.428;2022-12-07T06:31:10;2.80;99.90
20744;DHT22;56303;52.160;-0.428;2022-12-07T06:33:40;2.90;99.90
20744;DHT22;56303;52.160;-0.428;2022-12-07T06:36:07;3.00;99.90
20744;DHT22;56303;52.160;-0.428;2022-12-07T06:38:35;3.10;99.90
20744;DHT22;56303;52.160;-0.428;2022-12-07T06:41:01;3.10;99.90
20744;DHT22;56303;52.160;-0.428;2022-12-07T06:43:29;3.00;99.90
20744;DHT22;56303;52.160;-0.428;2022-12-07T06:45:56;2.90;99.90
20744;DHT22;56303;52.160;-0.428;2022-12-07T06:48:23;2.80;99.90
20744;DHT22;56303;52.160;-0.428;2022-12-07T06:50:50;2.80;99.90
20744;DHT22;56303;52.160;-0.428;2022-12-07T06:53:21;2.80;99.90
20744;DHT22;56303;52.160;-0.428;2022-12-07T06:55:48;2.80;99.90
20744;DHT22;56303;52.160;-0.428;2022-12-07T06:58:16;2.80;99.90
20744;DHT22;56303;52.160;-0.428;2022-12-07T07:00:43;2.90;99.90
20744;DHT22;56303;52.160;-0.428;2022-12-07T07:03:11;3.00;99.90
20744;DHT22;56303;52.160;-0.428;2022-12-07T07:05:37;3.00;99.90
20744;DHT22;56303;52.160;-0.428;2022-12-07T07:08:04;3.00;99.90
20744;DHT22;56303;52.160;-0.428;2022-12-07T07:10:48;3.00;99.90
20744;DHT22;56303;52.160;-0.428;2022-12-07T07:13:15;2.90;99.90
20744;DHT22;56303;52.160;-0.428;2022-12-07T07:15:42;2.80;99.90
20744;DHT22;56303;52.160;-0.428;2022-12-07T07:18:09;2.70;99.90
20744;DHT22;56303;52.160;-0.428;2022-12-07T07:20:37;2.70;99.90
20744;DHT22;56303;52.160;-0.428;2022-12-07T07:23:04;2.70;99.90
20744;DHT22;56303;52.160;-0.428;2022-12-07T07:25:31;2.70;99.90
20744;DHT22;56303;52.160;-0.428;2022-12-07T07:27:58;2.80;99.90
20744;DHT22;56303;52.160;-0.428;2022-12-07T07:30:26;2.80;99.90
20744;DHT22;56303;52.160;-0.428;2022-12-07T07:33:01;2.80;99.90
20744;DHT22;56303;52.160;-0.428;2022-12-07T07:35:29;2.90;99.90
20744;DHT22;56303;52.160;-0.428;2022-12-07T07:37:56;3.00;99.90
20744;DHT22;56303;52.160;-0.428;2022-12-07T07:40:24;2.80;99.90
20744;DHT22;56303;52.160;-0.428;2022-12-07T07:42:52;2.60;99.90
20744;DHT22;56303;52.160;-0.428;2022-12-07T07:45:20;2.70;99.90
20744;DHT22;56303;52.160;-0.428;2022-12-07T07:47:48;2.90;99.90
20744;DHT22;56303;52.160;-0.428;2022-12-07T07:50:15;2.70;99.90
20744;DHT22;56303;52.160;-0.428;2022-12-07T07:52:43;2.70;99.90
20744;DHT22;56303;52.160;-0.428;2022-12-07T07:55:10;2.80;99.90
20744;DHT22;56303;52.160;-0.428;2022-12-07T07:57:38;2.60;99.90
20744;DHT22;56303;52.160;-0.428;2022-12-07T08:00:12;2.60;99.90
20744;DHT22;56303;52.160;-0.428;2022-12-07T08:02:41;2.60;99.90
20744;DHT22;56303;52.160;-0.428;2022-12-07T08:05:10;2.40;99.90
20744;DHT22;56303;52.160;-0.428;2022-12-07T08:07:38;2.60;99.90
20744;DHT22;56303;52.160;-0.428;2022-12-07T08:10:07;2.80;99.90
20744;DHT22;56303;52.160;-0.428;2022-12-07T08:12:37;2.70;99.90
20744;DHT22;56303;52.160;-0.428;2022-12-07T08:15:25;2.80;99.90
20744;DHT22;56303;52.160;-0.428;2022-12-07T08:17:52;2.80;99.90
20744;DHT22;56303;52.160;-0.428;2022-12-07T08:20:20;2.90;99.90
20744;DHT22;56303;52.160;-0.428;2022-12-07T08:22:47;3.00;99.90
20744;DHT22;56303;52.160;-0.428;2022-12-07T08:25:14;3.10;99.90
20744;DHT22;56303;52.160;-0.428;2022-12-07T08:27:41;3.00;99.90
20744;DHT22;56303;52.160;-0.428;2022-12-07T08:30:08;3.00;99.90
20744;DHT22;56303;52.160;-0.428;2022-12-07T08:32:35;3.10;99.90
20744;DHT22;56303;52.160;-0.428;2022-12-07T08:35:02;3.20;99.90
20744;DHT22;56303;52.160;-0.428;2022-12-07T08:37:29;3.20;99.90
20744;DHT22;56303;52.160;-0.428;2022-12-07T08:39:55;3.20;99.90
20744;DHT22;56303;52.160;-0.428;2022-12-07T08:42:22;3.20;99.90
20744;DHT22;56303;52.160;-0.428;2022-12-07T08:44:53;3.20;99.90
20744;DHT22;56303;52.160;-0.428;2022-12-07T08:47:20;3.30;99.90
20744;DHT22;56303;52.160;-0.428;2022-12-07T08:49:50;3.40;99.90
20744;DHT22;56303;52.160;-0.428;2022-12-07T08:52:18;3.60;99.90
20744;DHT22;56303;52.160;-0.428;2022-12-07T08:54:45;3.60;99.90
20744;DHT22;56303;52.160;-0.428;2022-12-07T08:57:12;3.50;99.90
20744;DHT22;56303;52.160;-0.428;2022-12-07T08:59:39;3.40;99.90
20744;DHT22;56303;52.160;-0.428;2022-12-07T09:02:06;3.50;99.90
20744;DHT22;56303;52.160;-0.428;2022-12-07T09:04:33;3.30;99.90
20744;DHT22;56303;52.160;-0.428;2022-12-07T09:07:00;3.00;99.90
20744;DHT22;56303;52.160;-0.428;2022-12-07T09:09:27;2.90;99.90
20744;DHT22;56303;52.160;-0.428;2022-12-07T09:11:54;2.70;99.90
20744;DHT22;56303;52.160;-0.428;2022-12-07T09:14:21;2.80;99.90
20744;DHT22;56303;52.160;-0.428;2022-12-07T09:16:48;2.70;99.90
20744;DHT22;56303;52.160;-0.428;2022-12-07T09:19:17;2.90;99.90
20744;DHT22;56303;52.160;-0.428;2022-12-07T09:21:45;3.00;99.90
20744;DHT22;56303;52.160;-0.428;2022-12-07T09:24:13;2.90;99.90
20744;DHT22;56303;52.160;-0.428;2022-12-07T09:26:40;2.80;99.90
20744;DHT22;56303;52.160;-0.428;2022-12-07T09:29:07;3.00;99.90
20744;DHT22;56303;52.160;-0.428;2022-12-07T09:31:36;2.80;99.90
20744;DHT22;56303;52.160;-0.428;2022-12-07T09:34:03;2.60;99.90
20744;DHT22;56303;52.160;-0.428;2022-12-07T09:36:32;2.70;99.90
20744;DHT22;56303;52.160;-0.428;2022-12-07T09:38:59;2.90;99.90
20744;DHT22;56303;52.160;-0.428;2022-12-07T09:41:27;2.90;99.90
20744;DHT22;56303;52.160;-0.428;2022-12-07T09:44:25;3.20;99.90
20744;DHT22;56303;52.160;-0.428;2022-12-07T09:46:50;2.90;99.90
20744;DHT22;56303;52.160;-0.428;2022-12-07T09:49:21;2.90;99.90
20744;DHT22;56303;52.160;-0.428;2022-12-07T09:52:20;3.00;99.90
20744;DHT22;56303;52.160;-0.428;2022-12-07T09:54:49;2.70;99.90
20744;DHT22;56303;52.160;-0.428;2022-12-07T09:57:17;3.00;99.90
20744;DHT22;56303;52.160;-0.428;2022-12-07T09:59:45;2.90;99.90
20744;DHT22;56303;52.160;-0.428;2022-12-07T10:02:38;3.30;99.90
20744;DHT22;56303;52.160;-0.428;2022-12-07T10:05:07;3.40;99.90
20744;DHT22;56303;52.160;-0.428;2022-12-07T10:07:37;3.20;99.90
20744;DHT22;56303;52.160;-0.428;2022-12-07T10:10:12;3.30;99.90
20744;DHT22;56303;52.160;-0.428;2022-12-07T10:12:54;2.80;99.90
20744;DHT22;56303;52.160;-0.428;2022-12-07T10:15:21;2.90;99.90
20744;DHT22;56303;52.160;-0.428;2022-12-07T10:17:51;3.20;99.90
20744;DHT22;56303;52.160;-0.428;2022-12-07T10:20:26;3.20;99.90
20744;DHT22;56303;52.160;-0.428;2022-12-07T10:23:02;3.40;99.90
20744;DHT22;56303;52.160;-0.428;2022-12-07T10:25:32;3.60;99.90
20744;DHT22;56303;52.160;-0.428;2022-12-07T10:28:16;3.60;99.90
20744;DHT22;56303;52.160;-0.428;2022-12-07T10:31:01;3.80;99.90
20744;DHT22;56303;52.160;-0.428;2022-12-07T10:33:38;3.90;99.90
20744;DHT22;56303;52.160;-0.428;2022-12-07T10:39:01;4.00;99.90
20744;DHT22;56303;52.160;-0.428;2022-12-07T10:41:28;4.00;99.90
20744;DHT22;56303;52.160;-0.428;2022-12-07T10:43:57;3.80;99.90
20744;DHT22;56303;52.160;-0.428;2022-12-07T10:49:33;4.20;99.90
20744;DHT22;56303;52.160;-0.428;2022-12-07T10:58:48;4.90;99.90
20744;DHT22;56303;52.160;-0.428;2022-12-07T11:15:56;5.70;99.90
20744;DHT22;56303;52.160;-0.428;2022-12-07T11:18:32;6.20;99.90
20744;DHT22;56303;52.160;-0.428;2022-12-07T11:35:30;6.10;99.90
20744;DHT22;56303;52.160;-0.428;2022-12-07T11:38:03;6.20;99.90
20744;DHT22;56303;52.160;-0.428;2022-12-07T11:40:36;6.20;99.90
20744;DHT22;56303;52.160;-0.428;2022-12-07T11:45:44;6.30;99.90
20744;DHT22;56303;52.160;-0.428;2022-12-07T11:49:33;5.60;99.90
20744;DHT22;56303;52.160;-0.428;2022-12-07T11:51:26;5.50;99.90
20744;DHT22;56303;52.160;-0.428;2022-12-07T11:54:03;6.00;99.90
20744;DHT22;56303;52.160;-0.428;2022-12-07T11:56:34;6.30;99.90
20744;DHT22;56303;52.160;-0.428;2022-12-07T11:59:23;6.00;99.90
20744;DHT22;56303;52.160;-0.428;2022-12-07T12:02:11;5.60;99.90
20744;DHT22;56303;52.160;-0.428;2022-12-07T12:07:34;6.20;99.90
20744;DHT22;56303;52.160;-0.428;2022-12-07T12:10:55;6.20;99.90
20744;DHT22;56303;52.160;-0.428;2022-12-07T12:20:03;6.40;99.90
20744;DHT22;56303;52.160;-0.428;2022-12-07T12:22:39;6.00;99.90
20744;DHT22;56303;52.160;-0.428;2022-12-07T12:25:25;6.10;99.90
20744;DHT22;56303;52.160;-0.428;2022-12-07T12:27:55;6.10;99.90
20744;DHT22;56303;52.160;-0.428;2022-12-07T12:30:39;6.40;99.90
20744;DHT22;56303;52.160;-0.428;2022-12-07T12:33:27;6.00;99.90
20744;DHT22;56303;52.160;-0.428;2022-12-07T12:54:32;6.50;99.90
20744;DHT22;56303;52.160;-0.428;2022-12-07T13:00:33;6.00;99.90
20744;DHT22;56303;52.160;-0.428;2022-12-07T13:02:36;6.10;99.90
20744;DHT22;56303;52.160;-0.428;2022-12-07T13:29:20;5.90;99.90
20744;DHT22;56303;52.160;-0.428;2022-12-07T13:31:55;5.90;99.90
20744;DHT22;56303;52.160;-0.428;2022-12-07T13:34:41;5.90;99.90
20744;DHT22;56303;52.160;-0.428;2022-12-07T13:37:24;5.90;99.90
20744;DHT22;56303;52.160;-0.428;2022-12-07T13:40:20;5.90;99.90
20744;DHT22;56303;52.160;-0.428;2022-12-07T13:42:47;6.00;99.90
20744;DHT22;56303;52.160;-0.428;2022-12-07T13:45:27;5.90;99.90
20744;DHT22;56303;52.160;-0.428;2022-12-07T13:48:34;6.10;99.90
20744;DHT22;56303;52.160;-0.428;2022-12-07T13:51:03;6.30;99.90
20744;DHT22;56303;52.160;-0.428;2022-12-07T13:53:30;6.30;99.90
20744;DHT22;56303;52.160;-0.428;2022-12-07T13:55:59;6.50;99.90
20744;DHT22;56303;52.160;-0.428;2022-12-07T13:58:30;7.30;99.90
20744;DHT22;56303;52.160;-0.428;2022-12-07T14:00:57;8.30;99.90
20744;DHT22;56303;52.160;-0.428;2022-12-07T14:03:37;9.40;99.90
20744;DHT22;56303;52.160;-0.428;2022-12-07T14:06:16;10.80;99.90
20744;DHT22;56303;52.160;-0.428;2022-12-07T14:08:44;11.60;99.90
20744;DHT22;56303;52.160;-0.428;2022-12-07T14:11:19;12.20;99.90
20744;DHT22;56303;52.160;-0.428;2022-12-07T14:13:51;12.10;99.90
20744;DHT22;56303;52.160;-0.428;2022-12-07T14:16:29;12.00;99.90
20744;DHT22;56303;52.160;-0.428;2022-12-07T14:18:59;11.50;99.90
20744;DHT22;56303;52.160;-0.428;2022-12-07T14:21:33;11.00;99.90
20744;DHT22;56303;52.160;-0.428;2022-12-07T14:24:18;10.80;99.90
20744;DHT22;56303;52.160;-0.428;2022-12-07T14:26:47;9.80;99.90
20744;DHT22;56303;52.160;-0.428;2022-12-07T14:31:54;8.90;99.90
20744;DHT22;56303;52.160;-0.428;2022-12-07T14:34:22;8.60;99.90
20744;DHT22;56303;52.160;-0.428;2022-12-07T14:36:50;8.60;99.90
20744;DHT22;56303;52.160;-0.428;2022-12-07T14:39:17;9.00;99.90
20744;DHT22;56303;52.160;-0.428;2022-12-07T14:41:44;9.30;99.90
20744;DHT22;56303;52.160;-0.428;2022-12-07T14:44:21;10.20;99.90
20744;DHT22;56303;52.160;-0.428;2022-12-07T14:46:53;10.00;99.90
20744;DHT22;56303;52.160;-0.428;2022-12-07T14:49:40;10.20;99.90
20744;DHT22;56303;52.160;-0.428;2022-12-07T14:52:15;9.80;99.90
20744;DHT22;56303;52.160;-0.428;2022-12-07T14:55:03;9.00;99.90
20744;DHT22;56303;52.160;-0.428;2022-12-07T14:57:30;9.00;99.90
20744;DHT22;56303;52.160;-0.428;2022-12-07T14:59:57;8.40;99.90
20744;DHT22;56303;52.160;-0.428;2022-12-07T15:02:23;8.70;99.90
20744;DHT22;56303;52.160;-0.428;2022-12-07T15:04:50;9.20;99.90
20744;DHT22;56303;52.160;-0.428;2022-12-07T15:07:21;9.10;99.90
20744;DHT22;56303;52.160;-0.428;2022-12-07T15:09:48;9.20;99.90
20744;DHT22;56303;52.160;-0.428;2022-12-07T15:12:15;9.60;99.90
20744;DHT22;56303;52.160;-0.428;2022-12-07T15:14:42;9.60;99.90
20744;DHT22;56303;52.160;-0.428;2022-12-07T15:17:12;9.80;99.90
20744;DHT22;56303;52.160;-0.428;2022-12-07T15:19:53;9.30;99.90
20744;DHT22;56303;52.160;-0.428;2022-12-07T15:22:20;8.60;99.90
20744;DHT22;56303;52.160;-0.428;2022-12-07T15:24:47;7.70;99.90
20744;DHT22;56303;52.160;-0.428;2022-12-07T15:27:13;7.30;99.90
20744;DHT22;56303;52.160;-0.428;2022-12-07T15:29:40;7.30;99.90
20744;DHT22;56303;52.160;-0.428;2022-12-07T15:32:07;7.30;99.90
20744;DHT22;56303;52.160;-0.428;2022-12-07T15:34:34;6.70;99.90
20744;DHT22;56303;52.160;-0.428;2022-12-07T15:37:07;6.90;99.90
20744;DHT22;56303;52.160;-0.428;2022-12-07T15:39:34;6.80;99.90
20744;DHT22;56303;52.160;-0.428;2022-12-07T15:42:01;6.80;99.90
20744;DHT22;56303;52.160;-0.428;2022-12-07T15:44:27;6.90;99.90
20744;DHT22;56303;52.160;-0.428;2022-12-07T15:47:13;6.90;99.90
20744;DHT22;56303;52.160;-0.428;2022-12-07T15:49:39;6.70;99.90
20744;DHT22;56303;52.160;-0.428;2022-12-07T15:52:09;6.40;99.90
20744;DHT22;56303;52.160;-0.428;2022-12-07T15:54:40;6.30;99.90
20744;DHT22;56303;52.160;-0.428;2022-12-07T15:57:07;6.10;99.90
20744;DHT22;56303;52.160;-0.428;2022-12-07T15:59:34;5.70;99.90
20744;DHT22;56303;52.160;-0.428;2022-12-07T16:02:01;5.50;99.90
20744;DHT22;56303;52.160;-0.428;2022-12-07T16:04:28;5.10;99.90
20744;DHT22;56303;52.160;-0.428;2022-12-07T16:06:58;5.00;99.90
20744;DHT22;56303;52.160;-0.428;2022-12-07T16:09:25;5.00;99.90
20744;DHT22;56303;52.160;-0.428;2022-12-07T16:11:53;5.00;99.90
20744;DHT22;56303;52.160;-0.428;2022-12-07T16:14:20;4.90;99.90
20744;DHT22;56303;52.160;-0.428;2022-12-07T16:16:48;5.00;99.90
20744;DHT22;56303;52.160;-0.428;2022-12-07T16:19:15;5.10;99.90
20744;DHT22;56303;52.160;-0.428;2022-12-07T16:21:42;5.10;99.90
20744;DHT22;56303;52.160;-0.428;2022-12-07T16:24:09;5.00;99.90
20744;DHT22;56303;52.160;-0.428;2022-12-07T16:26:36;5.00;99.90
20744;DHT22;56303;52.160;-0.428;2022-12-07T16:29:03;4.80;99.90
20744;DHT22;56303;52.160;-0.428;2022-12-07T16:31:30;4.80;99.90
20744;DHT22;56303;52.160;-0.428;2022-12-07T16:33:58;4.80;99.90
20744;DHT22;56303;52.160;-0.428;2022-12-07T16:36:25;4.80;99.90
20744;DHT22;56303;52.160;-0.428;2022-12-07T16:39:14;4.80;99.90
20744;DHT22;56303;52.160;-0.428;2022-12-07T16:41:41;4.70;99.90
20744;DHT22;56303;52.160;-0.428;2022-12-07T16:44:10;4.70;99.90
20744;DHT22;56303;52.160;-0.428;2022-12-07T16:46:38;4.60;99.90
20744;DHT22;56303;52.160;-0.428;2022-12-07T16:49:05;4.60;99.90
20744;DHT22;56303;52.160;-0.428;2022-12-07T16:51:32;4.90;99.90
20744;DHT22;56303;52.160;-0.428;2022-12-07T16:54:01;4.80;99.90
20744;DHT22;56303;52.160;-0.428;2022-12-07T16:56:28;4.90;99.90
20744;DHT22;56303;52.160;-0.428;2022-12-07T16:58:58;4.80;99.90
20744;DHT22;56303;52.160;-0.428;2022-12-07T17:01:25;4.70;99.90
20744;DHT22;56303;52.160;-0.428;2022-12-07T17:03:56;4.70;99.90
20744;DHT22;56303;52.160;-0.428;2022-12-07T17:06:26;4.60;99.90
20744;DHT22;56303;52.160;-0.428;2022-12-07T17:08:54;4.50;99.90
20744;DHT22;56303;52.160;-0.428;2022-12-07T17:11:27;4.30;99.90
20744;DHT22;56303;52.160;-0.428;2022-12-07T17:13:55;4.10;99.90
20744;DHT22;56303;52.160;-0.428;2022-12-07T17:16:41;4.00;99.90
20744;DHT22;56303;52.160;-0.428;2022-12-07T17:19:11;3.90;99.90
20744;DHT22;56303;52.160;-0.428;2022-12-07T17:21:39;4.10;99.90
20744;DHT22;56303;52.160;-0.428;2022-12-07T17:24:08;4.10;99.90
20744;DHT22;56303;52.160;-0.428;2022-12-07T17:26:36;4.00;99.90
20744;DHT22;56303;52.160;-0.428;2022-12-07T17:29:04;4.00;99.90
20744;DHT22;56303;52.160;-0.428;2022-12-07T17:31:31;3.90;99.90
20744;DHT22;56303;52.160;-0.428;2022-12-07T17:33:59;4.00;99.90
20744;DHT22;56303;52.160;-0.428;2022-12-07T17:36:28;4.00;99.90
20744;DHT22;56303;52.160;-0.428;2022-12-07T17:38:56;3.90;99.90
20744;DHT22;56303;52.160;-0.428;2022-12-07T17:41:25;3.70;99.90
20744;DHT22;56303;52.160;-0.428;2022-12-07T17:44:16;3.50;99.90
20744;DHT22;56303;52.160;-0.428;2022-12-07T17:46:43;3.50;99.90
20744;DHT22;56303;52.160;-0.428;2022-12-07T17:49:10;3.50;99.90
20744;DHT22;56303;52.160;-0.428;2022-12-07T17:51:37;3.40;99.90
20744;DHT22;56303;52.160;-0.428;2022-12-07T17:54:23;3.50;99.90
20744;DHT22;56303;52.160;-0.428;2022-12-07T17:56:50;3.50;99.90
20744;DHT22;56303;52.160;-0.428;2022-12-07T17:59:17;3.50;99.90
20744;DHT22;56303;52.160;-0.428;2022-12-07T18:01:45;3.40;99.90
20744;DHT22;56303;52.160;-0.428;2022-12-07T18:04:12;3.40;99.90
20744;DHT22;56303;52.160;-0.428;2022-12-07T18:06:39;3.40;99.90
20744;DHT22;56303;52.160;-0.428;2022-12-07T18:09:07;3.40;99.90
20744;DHT22;56303;52.160;-0.428;2022-12-07T18:11:34;3.30;99.90
20744;DHT22;56303;52.160;-0.428;2022-12-07T18:14:02;3.40;99.90